sensor_id;sensor_type;location;lat;lon;timestamp;pressure;altitude;pressure_sealevel;temperature;humidity
10700;BME280;5401;41.986;21.452;2024-02-16T00:01:24;99114.94;;;5.72;53.37
10700;BME280;5401;41.986;21.452;2024-02-16T00:03:51;99102.59;;;5.63;53.16
10700;BME280;5401;41.986;21.452;2024-02-16T00:06:19;99119.91;;;5.75;53.51
10700;BME280;5401;41.986;21.452;2024-02-16T00:08:46;99125.38;;;5.73;53.54
10700;BME280;5401;41.986;21.452;2024-02-16T00:11:14;99123.84;;;5.71;53.59
10700;BME280;5401;41.986;21.452;2024-02-16T00:13:41;99113.06;;;5.65;53.57
10700;BME280;5401;41.986;21.452;2024-02-16T00:16:09;99119.69;;;5.68;53.31
10700;BME280;5401;41.986;21.452;2024-02-16T00:18:38;99074.31;;;5.38;53.90
10700;BME280;5401;41.986;21.452;2024-02-16T00:21:05;99126.84;;;5.68;53.32
10700;BME280;5401;41.986;21.452;2024-02-16T00:23:33;99128.84;;;5.66;53.64
10700;BME280;5401;41.986;21.452;2024-02-16T00:26:02;99075.97;;;5.32;53.62
10700;BME280;5401;41.986;21.452;2024-02-16T00:28:33;99120.84;;;5.58;53.63
10700;BME280;5401;41.986;21.452;2024-02-16T00:31:00;99126.47;;;5.55;54.16
10700;BME280;5401;41.986;21.452;2024-02-16T00:33:28;99117.81;;;5.53;53.55
10700;BME280;5401;41.986;21.452;2024-02-16T00:35:57;99128.78;;;5.50;53.92
10700;BME280;5401;41.986;21.452;2024-02-16T00:38:24;99114.81;;;5.40;53.75
10700;BME280;5401;41.986;21.452;2024-02-16T00:40:52;99126.78;;;5.44;54.48
10700;BME280;5401;41.986;21.452;2024-02-16T00:43:19;99128.25;;;5.39;54.08
10700;BME280;5401;41.986;21.452;2024-02-16T00:45:47;99125.13;;;5.35;54.16
10700;BME280;5401;41.986;21.452;2024-02-16T00:48:14;99129.56;;;5.35;54.02
10700;BME280;5401;41.986;21.452;2024-02-16T00:50:42;99131.41;;;5.34;54.24
10700;BME280;5401;41.986;21.452;2024-02-16T00:53:10;99123.25;;;5.28;54.32
10700;BME280;5401;41.986;21.452;2024-02-16T00:55:38;99132.72;;;5.31;54.43
10700;BME280;5401;41.986;21.452;2024-02-16T00:58:07;99069.91;;;4.98;54.58
10700;BME280;5401;41.986;21.452;2024-02-16T01:00:35;99118.59;;;5.22;54.40
10700;BME280;5401;41.986;21.452;2024-02-16T01:03:03;99126.41;;;5.24;54.41
10700;BME280;5401;41.986;21.452;2024-02-16T01:05:31;99122.41;;;5.20;54.66
10700;BME280;5401;41.986;21.452;2024-02-16T01:07:58;99115.75;;;5.16;54.77
10700;BME280;5401;41.986;21.452;2024-02-16T01:10:27;99112.28;;;5.15;54.84
10700;BME280;5401;41.986;21.452;2024-02-16T01:12:55;99068.38;;;4.88;54.99
10700;BME280;5401;41.986;21.452;2024-02-16T01:15:23;99113.41;;;5.13;54.89
10700;BME280;5401;41.986;21.452;2024-02-16T01:17:50;99109.09;;;5.12;55.41
10700;BME280;5401;41.986;21.452;2024-02-16T01:20:18;99107.94;;;5.14;55.03
10700;BME280;5401;41.986;21.452;2024-02-16T01:22:46;99106.78;;;5.17;54.97
10700;BME280;5401;41.986;21.452;2024-02-16T01:25:14;99087.31;;;5.00;55.11
10700;BME280;5401;41.986;21.452;2024-02-16T01:27:43;99108.94;;;5.13;55.48
10700;BME280;5401;41.986;21.452;2024-02-16T01:30:11;99098.47;;;5.12;55.50
10700;BME280;5401;41.986;21.452;2024-02-16T01:32:38;99104.94;;;5.09;55.61
10700;BME280;5401;41.986;21.452;2024-02-16T01:35:07;99104.47;;;5.14;54.91
10700;BME280;5401;41.986;21.452;2024-02-16T01:37:34;99096.13;;;5.09;55.33
10700;BME280;5401;41.986;21.452;2024-02-16T01:40:02;99097.28;;;5.06;54.92
10700;BME280;5401;41.986;21.452;2024-02-16T01:42:30;99093.47;;;5.09;55.42
10700;BME280;5401;41.986;21.452;2024-02-16T01:44:59;99083.19;;;5.06;55.33
10700;BME280;5401;41.986;21.452;2024-02-16T01:47:26;99085.22;;;5.12;55.60
10700;BME280;5401;41.986;21.452;2024-02-16T01:49:54;99083.38;;;5.12;55.23
10700;BME280;5401;41.986;21.452;2024-02-16T01:52:22;99084.19;;;5.13;55.62
10700;BME280;5401;41.986;21.452;2024-02-16T01:54:50;99081.75;;;5.11;55.52
10700;BME280;5401;41.986;21.452;2024-02-16T01:57:17;99068.09;;;5.06;55.11
10700;BME280;5401;41.986;21.452;2024-02-16T01:59:45;99058.78;;;5.02;56.02
10700;BME280;5401;41.986;21.452;2024-02-16T02:02:14;99063.47;;;5.08;55.71
10700;BME280;5401;41.986;21.452;2024-02-16T02:04:41;99061.16;;;5.05;55.64
10700;BME280;5401;41.986;21.452;2024-02-16T02:07:12;99070.94;;;5.05;55.69
10700;BME280;5401;41.986;21.452;2024-02-16T02:09:40;99061.94;;;4.98;56.22
10700;BME280;5401;41.986;21.452;2024-02-16T02:12:07;99073.22;;;5.00;55.76
10700;BME280;5401;41.986;21.452;2024-02-16T02:14:35;99059.28;;;4.98;55.46
10700;BME280;5401;41.986;21.452;2024-02-16T02:17:03;99070.25;;;4.95;56.11
10700;BME280;5401;41.986;21.452;2024-02-16T02:19:32;99062.59;;;4.92;55.79
10700;BME280;5401;41.986;21.452;2024-02-16T02:21:59;99068.56;;;4.94;55.79
10700;BME280;5401;41.986;21.452;2024-02-16T02:24:29;99077.34;;;4.95;55.70
10700;BME280;5401;41.986;21.452;2024-02-16T02:26:56;99060.25;;;4.89;56.39
10700;BME280;5401;41.986;21.452;2024-02-16T02:29:24;99064.91;;;4.87;55.64
10700;BME280;5401;41.986;21.452;2024-02-16T02:31:52;99059.06;;;4.84;56.07
10700;BME280;5401;41.986;21.452;2024-02-16T02:34:19;99064.72;;;4.89;56.47
10700;BME280;5401;41.986;21.452;2024-02-16T02:36:47;99064.22;;;4.85;55.86
10700;BME280;5401;41.986;21.452;2024-02-16T02:39:14;99074.47;;;4.80;56.40
10700;BME280;5401;41.986;21.452;2024-02-16T02:41:43;99065.50;;;4.73;56.25
10700;BME280;5401;41.986;21.452;2024-02-16T02:44:11;99072.78;;;4.71;56.25
10700;BME280;5401;41.986;21.452;2024-02-16T02:46:38;99076.25;;;4.72;56.27
10700;BME280;5401;41.986;21.452;2024-02-16T02:49:06;99052.00;;;4.59;56.71
10700;BME280;5401;41.986;21.452;2024-02-16T02:51:34;99077.56;;;4.68;56.77
10700;BME280;5401;41.986;21.452;2024-02-16T02:54:01;99069.59;;;4.68;56.88
10700;BME280;5401;41.986;21.452;2024-02-16T02:56:29;99073.25;;;4.67;56.85
10700;BME280;5401;41.986;21.452;2024-02-16T02:58:58;99076.06;;;4.65;56.49
10700;BME280;5401;41.986;21.452;2024-02-16T03:01:25;99071.72;;;4.64;57.03
10700;BME280;5401;41.986;21.452;2024-02-16T03:03:53;99076.22;;;4.64;56.28
10700;BME280;5401;41.986;21.452;2024-02-16T03:06:21;99079.69;;;4.57;56.56
10700;BME280;5401;41.986;21.452;2024-02-16T03:08:49;99063.97;;;4.38;56.51
10700;BME280;5401;41.986;21.452;2024-02-16T03:11:16;99083.72;;;4.43;56.62
10700;BME280;5401;41.986;21.452;2024-02-16T03:13:44;99086.72;;;4.40;56.81
10700;BME280;5401;41.986;21.452;2024-02-16T03:16:15;99042.59;;;4.06;57.25
10700;BME280;5401;41.986;21.452;2024-02-16T03:18:42;99088.81;;;4.12;57.58
10700;BME280;5401;41.986;21.452;2024-02-16T03:21:13;99094.84;;;3.96;57.33
10700;BME280;5401;41.986;21.452;2024-02-16T03:23:42;99093.47;;;3.92;57.91
10700;BME280;5401;41.986;21.452;2024-02-16T03:26:16;99099.91;;;3.90;57.16
10700;BME280;5401;41.986;21.452;2024-02-16T03:28:44;99098.56;;;3.86;58.03
10700;BME280;5401;41.986;21.452;2024-02-16T03:31:19;99108.63;;;3.83;57.48
10700;BME280;5401;41.986;21.452;2024-02-16T03:33:46;99104.25;;;3.74;58.17
10700;BME280;5401;41.986;21.452;2024-02-16T03:36:15;99094.66;;;3.55;57.98
10700;BME280;5401;41.986;21.452;2024-02-16T03:38:43;99117.00;;;3.61;57.45
10700;BME280;5401;41.986;21.452;2024-02-16T03:41:13;99114.28;;;3.53;58.35
10700;BME280;5401;41.986;21.452;2024-02-16T03:43:42;99110.44;;;3.48;58.49
10700;BME280;5401;41.986;21.452;2024-02-16T03:46:10;99115.28;;;3.52;58.00
10700;BME280;5401;41.986;21.452;2024-02-16T03:48:39;99114.81;;;3.56;58.70
10700;BME280;5401;41.986;21.452;2024-02-16T03:51:07;99117.34;;;3.58;58.46
10700;BME280;5401;41.986;21.452;2024-02-16T03:53:35;99111.13;;;3.50;58.71
10700;BME280;5401;41.986;21.452;2024-02-16T03:56:03;99122.81;;;3.47;58.29
10700;BME280;5401;41.986;21.452;2024-02-16T03:58:31;99114.88;;;3.47;57.94
10700;BME280;5401;41.986;21.452;2024-02-16T04:00:59;99114.88;;;3.47;57.87
10700;BME280;5401;41.986;21.452;2024-02-16T04:03:27;99116.44;;;3.50;58.87
10700;BME280;5401;41.986;21.452;2024-02-16T04:05:56;99113.22;;;3.46;58.12
10700;BME280;5401;41.986;21.452;2024-02-16T04:08:25;99109.38;;;3.41;58.80
10700;BME280;5401;41.986;21.452;2024-02-16T04:10:53;99106.03;;;3.39;58.99
10700;BME280;5401;41.986;21.452;2024-02-16T04:13:20;99112.59;;;3.35;59.01
10700;BME280;5401;41.986;21.452;2024-02-16T04:15:48;99115.78;;;3.38;58.43
10700;BME280;5401;41.986;21.452;2024-02-16T04:18:15;99119.81;;;3.42;58.82
10700;BME280;5401;41.986;21.452;2024-02-16T04:20:44;99101.75;;;3.38;58.63
10700;BME280;5401;41.986;21.452;2024-02-16T04:23:13;99125.19;;;3.50;58.98
10700;BME280;5401;41.986;21.452;2024-02-16T04:25:41;99127.53;;;3.53;58.41
10700;BME280;5401;41.986;21.452;2024-02-16T04:28:08;99130.84;;;3.55;59.27
10700;BME280;5401;41.986;21.452;2024-02-16T04:30:36;99129.75;;;3.57;58.46
10700;BME280;5401;41.986;21.452;2024-02-16T04:33:04;99120.66;;;3.60;58.39
10700;BME280;5401;41.986;21.452;2024-02-16T04:35:32;99126.63;;;3.62;58.50
10700;BME280;5401;41.986;21.452;2024-02-16T04:37:59;99124.13;;;3.60;58.38
10700;BME280;5401;41.986;21.452;2024-02-16T04:40:29;99122.44;;;3.59;59.39
10700;BME280;5401;41.986;21.452;2024-02-16T04:43:03;99119.81;;;3.59;58.35
10700;BME280;5401;41.986;21.452;2024-02-16T04:45:30;99138.34;;;3.59;59.38
10700;BME280;5401;41.986;21.452;2024-02-16T04:48:02;99121.47;;;3.60;58.48
10700;BME280;5401;41.986;21.452;2024-02-16T04:50:30;99132.38;;;3.57;58.50
10700;BME280;5401;41.986;21.452;2024-02-16T04:52:57;99129.88;;;3.56;59.13
10700;BME280;5401;41.986;21.452;2024-02-16T04:55:25;99081.91;;;3.24;59.54
10700;BME280;5401;41.986;21.452;2024-02-16T04:57:54;99133.22;;;3.58;58.70
10700;BME280;5401;41.986;21.452;2024-02-16T05:00:21;99139.78;;;3.54;59.04
10700;BME280;5401;41.986;21.452;2024-02-16T05:02:50;99140.47;;;3.56;59.35
10700;BME280;5401;41.986;21.452;2024-02-16T05:05:18;99070.56;;;3.15;59.37
10700;BME280;5401;41.986;21.452;2024-02-16T05:07:48;99134.19;;;3.57;59.07
10700;BME280;5401;41.986;21.452;2024-02-16T05:10:15;99130.72;;;3.56;59.23
10700;BME280;5401;41.986;21.452;2024-02-16T05:12:43;99130.56;;;3.58;58.81
10700;BME280;5401;41.986;21.452;2024-02-16T05:15:12;99127.25;;;3.56;59.15
10700;BME280;5401;41.986;21.452;2024-02-16T05:17:40;99136.16;;;3.55;58.86
10700;BME280;5401;41.986;21.452;2024-02-16T05:20:10;99128.97;;;3.48;59.76
10700;BME280;5401;41.986;21.452;2024-02-16T05:22:42;99138.41;;;3.50;59.00
10700;BME280;5401;41.986;21.452;2024-02-16T05:25:09;99141.75;;;3.52;59.38
10700;BME280;5401;41.986;21.452;2024-02-16T05:27:37;99139.47;;;3.57;59.42
10700;BME280;5401;41.986;21.452;2024-02-16T05:30:05;99135.53;;;3.61;59.69
10700;BME280;5401;41.986;21.452;2024-02-16T05:32:36;99139.69;;;3.63;59.81
10700;BME280;5401;41.986;21.452;2024-02-16T05:35:06;99079.66;;;3.29;59.84
10700;BME280;5401;41.986;21.452;2024-02-16T05:37:37;99143.44;;;3.70;59.69
10700;BME280;5401;41.986;21.452;2024-02-16T05:40:08;99148.63;;;3.80;59.88
10700;BME280;5401;41.986;21.452;2024-02-16T05:42:46;99152.78;;;3.99;59.73
10700;BME280;5401;41.986;21.452;2024-02-16T05:45:17;99150.88;;;4.26;58.88
10700;BME280;5401;41.986;21.452;2024-02-16T05:47:47;99149.63;;;4.63;58.72
10700;BME280;5401;41.986;21.452;2024-02-16T05:50:15;99151.84;;;5.09;58.72
10700;BME280;5401;41.986;21.452;2024-02-16T05:52:43;99147.06;;;5.61;58.03
10700;BME280;5401;41.986;21.452;2024-02-16T05:55:11;99139.38;;;6.15;56.78
10700;BME280;5401;41.986;21.452;2024-02-16T05:57:39;99149.78;;;6.72;56.04
10700;BME280;5401;41.986;21.452;2024-02-16T06:00:08;99148.44;;;7.29;55.63
10700;BME280;5401;41.986;21.452;2024-02-16T06:02:36;99154.94;;;7.87;54.97
10700;BME280;5401;41.986;21.452;2024-02-16T06:05:06;99148.09;;;8.59;53.56
10700;BME280;5401;41.986;21.452;2024-02-16T06:07:35;99161.97;;;9.34;52.47
10700;BME280;5401;41.986;21.452;2024-02-16T06:10:05;99152.28;;;9.97;51.59
10700;BME280;5401;41.986;21.452;2024-02-16T06:12:36;99152.56;;;10.70;50.83
10700;BME280;5401;41.986;21.452;2024-02-16T06:15:04;99146.00;;;11.33;49.22
10700;BME280;5401;41.986;21.452;2024-02-16T06:17:32;99148.41;;;12.08;48.24
10700;BME280;5401;41.986;21.452;2024-02-16T06:20:00;99155.94;;;12.77;47.76
10700;BME280;5401;41.986;21.452;2024-02-16T06:22:30;99136.84;;;13.36;46.01
10700;BME280;5401;41.986;21.452;2024-02-16T06:24:58;99124.16;;;14.05;45.63
10700;BME280;5401;41.986;21.452;2024-02-16T06:27:26;99140.78;;;14.88;44.13
10700;BME280;5401;41.986;21.452;2024-02-16T06:29:54;99147.97;;;15.60;43.35
10700;BME280;5401;41.986;21.452;2024-02-16T06:32:21;99145.06;;;16.26;42.47
10700;BME280;5401;41.986;21.452;2024-02-16T06:34:49;99158.31;;;16.97;41.05
10700;BME280;5401;41.986;21.452;2024-02-16T06:37:16;99160.47;;;17.51;41.01
10700;BME280;5401;41.986;21.452;2024-02-16T06:39:45;99151.88;;;18.05;39.51
10700;BME280;5401;41.986;21.452;2024-02-16T06:42:13;99148.69;;;18.47;39.34
10700;BME280;5401;41.986;21.452;2024-02-16T06:44:40;99144.75;;;18.98;38.50
10700;BME280;5401;41.986;21.452;2024-02-16T06:47:08;99147.28;;;19.53;37.95
10700;BME280;5401;41.986;21.452;2024-02-16T06:49:35;99167.75;;;20.19;36.79
10700;BME280;5401;41.986;21.452;2024-02-16T06:52:04;99166.91;;;20.61;36.00
10700;BME280;5401;41.986;21.452;2024-02-16T06:54:31;99173.84;;;20.74;35.92
10700;BME280;5401;41.986;21.452;2024-02-16T06:57:00;99166.78;;;20.73;35.97
10700;BME280;5401;41.986;21.452;2024-02-16T06:59:28;99165.22;;;20.81;35.25
10700;BME280;5401;41.986;21.452;2024-02-16T07:01:56;99163.06;;;20.83;34.88
10700;BME280;5401;41.986;21.452;2024-02-16T07:04:23;99149.56;;;20.67;35.11
10700;BME280;5401;41.986;21.452;2024-02-16T07:06:51;99147.50;;;20.58;35.35
10700;BME280;5401;41.986;21.452;2024-02-16T07:09:18;99165.56;;;20.64;35.02
10700;BME280;5401;41.986;21.452;2024-02-16T07:11:48;99172.94;;;20.63;35.07
10700;BME280;5401;41.986;21.452;2024-02-16T07:14:18;99171.06;;;20.95;35.00
10700;BME280;5401;41.986;21.452;2024-02-16T07:16:45;99170.19;;;20.89;34.55
10700;BME280;5401;41.986;21.452;2024-02-16T07:19:13;99178.78;;;20.55;34.82
10700;BME280;5401;41.986;21.452;2024-02-16T07:21:40;99166.03;;;20.35;35.21
10700;BME280;5401;41.986;21.452;2024-02-16T07:24:15;99160.69;;;20.18;35.10
10700;BME280;5401;41.986;21.452;2024-02-16T07:26:42;99164.16;;;19.55;35.66
10700;BME280;5401;41.986;21.452;2024-02-16T07:29:13;99177.50;;;19.08;35.92
10700;BME280;5401;41.986;21.452;2024-02-16T07:31:44;99174.09;;;18.57;37.25
10700;BME280;5401;41.986;21.452;2024-02-16T07:34:11;99170.94;;;18.21;37.52
10700;BME280;5401;41.986;21.452;2024-02-16T07:36:39;99170.59;;;17.67;37.55
10700;BME280;5401;41.986;21.452;2024-02-16T07:39:06;99183.75;;;17.07;38.26
10700;BME280;5401;41.986;21.452;2024-02-16T07:41:39;99173.94;;;16.43;39.39
10700;BME280;5401;41.986;21.452;2024-02-16T07:44:06;99171.72;;;15.69;40.60
10700;BME280;5401;41.986;21.452;2024-02-16T07:46:40;99177.31;;;15.08;41.14
10700;BME280;5401;41.986;21.452;2024-02-16T07:49:09;99167.84;;;14.75;42.22
10700;BME280;5401;41.986;21.452;2024-02-16T07:51:38;99177.22;;;14.66;42.45
10700;BME280;5401;41.986;21.452;2024-02-16T07:54:06;99165.06;;;14.27;43.37
10700;BME280;5401;41.986;21.452;2024-02-16T07:56:34;99172.34;;;14.20;43.35
10700;BME280;5401;41.986;21.452;2024-02-16T07:59:01;99181.09;;;14.15;43.70
10700;BME280;5401;41.986;21.452;2024-02-16T08:01:29;99170.50;;;14.14;43.50
10700;BME280;5401;41.986;21.452;2024-02-16T08:03:56;99181.94;;;14.09;42.88
10700;BME280;5401;41.986;21.452;2024-02-16T08:06:26;99177.44;;;13.90;43.06
10700;BME280;5401;41.986;21.452;2024-02-16T08:08:54;99157.47;;;13.61;43.86
10700;BME280;5401;41.986;21.452;2024-02-16T08:11:22;99187.28;;;13.66;44.34
10700;BME280;5401;41.986;21.452;2024-02-16T08:13:50;99176.28;;;13.74;43.38
10700;BME280;5401;41.986;21.452;2024-02-16T08:16:17;99177.69;;;13.83;44.03
10700;BME280;5401;41.986;21.452;2024-02-16T08:18:45;99174.72;;;13.97;43.51
10700;BME280;5401;41.986;21.452;2024-02-16T08:21:12;99167.91;;;14.01;43.88
10700;BME280;5401;41.986;21.452;2024-02-16T08:23:41;99165.53;;;14.17;43.29
10700;BME280;5401;41.986;21.452;2024-02-16T08:26:09;99183.19;;;14.44;43.93
10700;BME280;5401;41.986;21.452;2024-02-16T08:28:36;99181.72;;;14.48;43.30
10700;BME280;5401;41.986;21.452;2024-02-16T08:31:05;99188.38;;;14.45;43.37
10700;BME280;5401;41.986;21.452;2024-02-16T08:33:33;99184.75;;;14.27;43.38
10700;BME280;5401;41.986;21.452;2024-02-16T08:36:03;99183.78;;;14.15;44.22
10700;BME280;5401;41.986;21.452;2024-02-16T08:38:31;99181.34;;;14.01;43.64
10700;BME280;5401;41.986;21.452;2024-02-16T08:41:00;99172.59;;;14.12;43.90
10700;BME280;5401;41.986;21.452;2024-02-16T08:43:29;99183.44;;;14.36;43.20
10700;BME280;5401;41.986;21.452;2024-02-16T08:45:56;99172.09;;;14.58;43.19
10700;BME280;5401;41.986;21.452;2024-02-16T08:48:24;99172.38;;;14.81;43.31
10700;BME280;5401;41.986;21.452;2024-02-16T08:50:52;99167.69;;;14.94;42.82
10700;BME280;5401;41.986;21.452;2024-02-16T08:53:19;99166.59;;;15.01;42.85
10700;BME280;5401;41.986;21.452;2024-02-16T08:55:47;99156.13;;;14.87;42.55
10700;BME280;5401;41.986;21.452;2024-02-16T08:58:16;99168.22;;;15.02;42.87
10700;BME280;5401;41.986;21.452;2024-02-16T09:00:44;99161.88;;;14.97;42.33
10700;BME280;5401;41.986;21.452;2024-02-16T09:03:12;99169.09;;;14.97;42.74
10700;BME280;5401;41.986;21.452;2024-02-16T09:05:40;99165.72;;;15.07;42.77
10700;BME280;5401;41.986;21.452;2024-02-16T09:08:09;99167.41;;;15.26;42.52
10700;BME280;5401;41.986;21.452;2024-02-16T09:10:37;99164.53;;;15.45;42.42
10700;BME280;5401;41.986;21.452;2024-02-16T09:13:05;99172.50;;;15.58;42.26
10700;BME280;5401;41.986;21.452;2024-02-16T09:15:34;99165.69;;;15.73;42.13
10700;BME280;5401;41.986;21.452;2024-02-16T09:18:03;99158.22;;;15.87;41.89
10700;BME280;5401;41.986;21.452;2024-02-16T09:20:30;99152.78;;;15.75;41.87
10700;BME280;5401;41.986;21.452;2024-02-16T09:22:58;99162.00;;;15.86;41.96
10700;BME280;5401;41.986;21.452;2024-02-16T09:25:26;99155.81;;;15.97;42.02
10700;BME280;5401;41.986;21.452;2024-02-16T09:27:54;99155.81;;;16.14;41.77
10700;BME280;5401;41.986;21.452;2024-02-16T09:30:21;99152.22;;;16.03;41.36
10700;BME280;5401;41.986;21.452;2024-02-16T09:32:50;99149.03;;;16.05;41.39
10700;BME280;5401;41.986;21.452;2024-02-16T09:35:18;99149.03;;;16.05;41.71
10700;BME280;5401;41.986;21.452;2024-02-16T09:37:45;99151.84;;;15.99;41.41
10700;BME280;5401;41.986;21.452;2024-02-16T09:40:13;99143.69;;;15.88;41.71
10700;BME280;5401;41.986;21.452;2024-02-16T09:42:41;99128.53;;;15.69;41.68
10700;BME280;5401;41.986;21.452;2024-02-16T09:45:09;99143.81;;;15.57;41.70
10700;BME280;5401;41.986;21.452;2024-02-16T09:47:39;99135.88;;;15.44;41.92
10700;BME280;5401;41.986;21.452;2024-02-16T09:50:09;99131.69;;;15.66;41.81
10700;BME280;5401;41.986;21.452;2024-02-16T09:52:36;99132.63;;;15.89;41.53
10700;BME280;5401;41.986;21.452;2024-02-16T09:55:07;99114.38;;;15.73;40.91
10700;BME280;5401;41.986;21.452;2024-02-16T09:57:37;99126.50;;;15.82;41.23
10700;BME280;5401;41.986;21.452;2024-02-16T10:00:05;99114.09;;;15.64;41.48
10700;BME280;5401;41.986;21.452;2024-02-16T10:02:39;99126.44;;;15.71;41.60
10700;BME280;5401;41.986;21.452;2024-02-16T10:05:15;99123.50;;;15.90;41.38
10700;BME280;5401;41.986;21.452;2024-02-16T10:07:43;99099.81;;;15.74;41.24
10700;BME280;5401;41.986;21.452;2024-02-16T10:10:20;99099.59;;;15.58;41.70
10700;BME280;5401;41.986;21.452;2024-02-16T10:12:49;99103.13;;;15.76;41.48
10700;BME280;5401;41.986;21.452;2024-02-16T10:15:20;99103.41;;;15.86;41.50
10700;BME280;5401;41.986;21.452;2024-02-16T10:17:57;99089.81;;;15.93;41.27
10700;BME280;5401;41.986;21.452;2024-02-16T10:20:26;99102.88;;;15.96;40.74
10700;BME280;5401;41.986;21.452;2024-02-16T10:23:04;99062.69;;;15.99;40.58
10700;BME280;5401;41.986;21.452;2024-02-16T10:25:32;99088.94;;;16.39;40.93
10700;BME280;5401;41.986;21.452;2024-02-16T10:28:04;99083.56;;;16.50;40.41
10700;BME280;5401;41.986;21.452;2024-02-16T10:30:35;99077.91;;;16.41;40.22
10700;BME280;5401;41.986;21.452;2024-02-16T10:33:04;99073.59;;;16.51;40.68
10700;BME280;5401;41.986;21.452;2024-02-16T10:35:34;99037.38;;;16.52;40.61
10700;BME280;5401;41.986;21.452;2024-02-16T10:38:03;99070.44;;;16.99;39.73
10700;BME280;5401;41.986;21.452;2024-02-16T10:40:32;99057.88;;;17.16;40.27
10700;BME280;5401;41.986;21.452;2024-02-16T10:43:04;99057.75;;;17.34;39.46
10700;BME280;5401;41.986;21.452;2024-02-16T10:45:34;99054.44;;;17.32;39.28
10700;BME280;5401;41.986;21.452;2024-02-16T10:48:02;99036.56;;;17.08;39.80
10700;BME280;5401;41.986;21.452;2024-02-16T10:50:33;99049.25;;;17.08;39.21
10700;BME280;5401;41.986;21.452;2024-02-16T10:53:04;99051.13;;;16.84;39.72
10700;BME280;5401;41.986;21.452;2024-02-16T10:55:37;99051.47;;;16.54;39.85
10700;BME280;5401;41.986;21.452;2024-02-16T10:58:06;99038.53;;;16.56;40.21
10700;BME280;5401;41.986;21.452;2024-02-16T11:00:35;99038.66;;;16.49;40.28
10700;BME280;5401;41.986;21.452;2024-02-16T11:03:04;99010.78;;;16.26;40.42
10700;BME280;5401;41.986;21.452;2024-02-16T11:05:34;99021.59;;;16.38;40.35
10700;BME280;5401;41.986;21.452;2024-02-16T11:08:03;99011.28;;;16.57;40.10
10700;BME280;5401;41.986;21.452;2024-02-16T11:10:31;99018.34;;;17.04;40.20
10700;BME280;5401;41.986;21.452;2024-02-16T11:13:02;99022.28;;;17.47;39.70
10700;BME280;5401;41.986;21.452;2024-02-16T11:15:31;99012.28;;;17.75;39.59
10700;BME280;5401;41.986;21.452;2024-02-16T11:18:00;98980.41;;;17.93;39.51
10700;BME280;5401;41.986;21.452;2024-02-16T11:20:28;99005.13;;;18.24;38.86
10700;BME280;5401;41.986;21.452;2024-02-16T11:23:06;99000.69;;;18.18;38.87
10700;BME280;5401;41.986;21.452;2024-02-16T11:25:36;99007.81;;;18.08;39.33
10700;BME280;5401;41.986;21.452;2024-02-16T11:28:04;98998.53;;;17.92;38.88
10700;BME280;5401;41.986;21.452;2024-02-16T11:30:33;98999.16;;;17.83;39.42
10700;BME280;5401;41.986;21.452;2024-02-16T11:33:02;99001.94;;;17.72;38.73
10700;BME280;5401;41.986;21.452;2024-02-16T11:35:29;98999.81;;;17.74;38.82
10700;BME280;5401;41.986;21.452;2024-02-16T11:37:57;98977.56;;;17.72;38.49
10700;BME280;5401;41.986;21.452;2024-02-16T11:40:26;98986.94;;;17.81;38.33
10700;BME280;5401;41.986;21.452;2024-02-16T11:43:02;98978.00;;;17.80;38.43
10700;BME280;5401;41.986;21.452;2024-02-16T11:45:33;98978.56;;;17.82;38.67
10700;BME280;5401;41.986;21.452;2024-02-16T11:48:05;98977.19;;;17.80;38.89
10700;BME280;5401;41.986;21.452;2024-02-16T11:50:33;98960.16;;;17.68;38.93
10700;BME280;5401;41.986;21.452;2024-02-16T11:53:01;98978.09;;;17.57;38.11
10700;BME280;5401;41.986;21.452;2024-02-16T11:55:30;98957.06;;;17.48;39.10
10700;BME280;5401;41.986;21.452;2024-02-16T11:57:58;98966.19;;;17.58;38.07
10700;BME280;5401;41.986;21.452;2024-02-16T12:00:26;98969.75;;;17.75;37.92
10700;BME280;5401;41.986;21.452;2024-02-16T12:03:00;98958.03;;;17.70;37.97
10700;BME280;5401;41.986;21.452;2024-02-16T12:05:28;98947.84;;;17.49;38.81
10700;BME280;5401;41.986;21.452;2024-02-16T12:07:57;98955.41;;;17.47;38.09
10700;BME280;5401;41.986;21.452;2024-02-16T12:10:25;98957.16;;;17.25;38.07
10700;BME280;5401;41.986;21.452;2024-02-16T12:12:55;98952.19;;;17.22;38.45
10700;BME280;5401;41.986;21.452;2024-02-16T12:15:22;98948.53;;;17.28;38.92
10700;BME280;5401;41.986;21.452;2024-02-16T12:17:58;98945.16;;;17.10;39.09
10700;BME280;5401;41.986;21.452;2024-02-16T12:20:26;98952.72;;;16.97;38.84
10700;BME280;5401;41.986;21.452;2024-02-16T12:22:54;98944.69;;;17.02;38.77
10700;BME280;5401;41.986;21.452;2024-02-16T12:25:21;98950.69;;;16.92;39.89
10700;BME280;5401;41.986;21.452;2024-02-16T12:27:49;98944.34;;;16.98;39.71
10700;BME280;5401;41.986;21.452;2024-02-16T12:30:18;98931.03;;;17.19;39.48
10700;BME280;5401;41.986;21.452;2024-02-16T12:32:45;98926.69;;;17.18;39.18
10700;BME280;5401;41.986;21.452;2024-02-16T12:35:13;98929.22;;;17.36;38.55
10700;BME280;5401;41.986;21.452;2024-02-16T12:37:41;98928.28;;;17.58;38.56
10700;BME280;5401;41.986;21.452;2024-02-16T12:40:09;98930.09;;;17.69;38.96
10700;BME280;5401;41.986;21.452;2024-02-16T12:42:37;98907.19;;;17.33;38.13
10700;BME280;5401;41.986;21.452;2024-02-16T12:45:05;98911.75;;;17.44;39.43
10700;BME280;5401;41.986;21.452;2024-02-16T12:47:34;98906.59;;;17.42;39.31
10700;BME280;5401;41.986;21.452;2024-02-16T12:50:03;98886.69;;;17.09;38.59
10700;BME280;5401;41.986;21.452;2024-02-16T12:52:31;98910.31;;;17.13;38.51
10700;BME280;5401;41.986;21.452;2024-02-16T12:55:00;98889.13;;;17.11;39.14
10700;BME280;5401;41.986;21.452;2024-02-16T12:57:27;98911.22;;;17.30;39.20
10700;BME280;5401;41.986;21.452;2024-02-16T12:59:55;98864.94;;;17.04;38.91
10700;BME280;5401;41.986;21.452;2024-02-16T13:02:23;98910.59;;;17.40;38.96
10700;BME280;5401;41.986;21.452;2024-02-16T13:04:52;98897.41;;;17.43;38.54
10700;BME280;5401;41.986;21.452;2024-02-16T13:07:20;98897.06;;;17.67;39.36
10700;BME280;5401;41.986;21.452;2024-02-16T13:09:48;98898.88;;;17.94;38.86
10700;BME280;5401;41.986;21.452;2024-02-16T13:12:16;98895.41;;;17.99;38.67